createdAt,value
2023-02-16T00:01:30.901Z,17.57
2023-02-16T00:03:59.338Z,14.47
2023-02-16T00:06:28.239Z,15.10
2023-02-16T00:08:57.945Z,12.33
2023-02-16T00:11:47.323Z,13.30
2023-02-16T00:14:15.768Z,15.10
2023-02-16T00:16:45.255Z,10.87
2023-02-16T00:19:22.311Z,10.83
2023-02-16T00:21:51.530Z,17.47
2023-02-16T00:24:19.608Z,14.03
2023-02-16T00:26:48.328Z,10.87
2023-02-16T00:29:21.258Z,13.10
2023-02-16T00:31:51.374Z,13.17
2023-02-16T00:34:33.032Z,12.20
2023-02-16T00:37:02.664Z,12.43
2023-02-16T00:39:31.671Z,10.60
2023-02-16T00:42:02.333Z,9.23
2023-02-16T00:44:34.914Z,11.80
2023-02-16T00:47:13.419Z,8.13
2023-02-16T00:49:41.509Z,13.30
2023-02-16T00:52:29.473Z,10.17
2023-02-16T00:54:58.017Z,11.43
2023-02-16T00:57:28.957Z,10.23
2023-02-16T01:00:04.494Z,8.47
2023-02-16T01:02:34.275Z,7.63
2023-02-16T01:05:02.503Z,11.13
2023-02-16T01:07:47.831Z,6.10
2023-02-16T01:10:33.085Z,15.83
2023-02-16T01:13:02.591Z,14.90
2023-02-16T01:15:30.667Z,16.30
2023-02-16T01:18:00.112Z,12.97
2023-02-16T01:20:29.170Z,11.37
2023-02-16T01:22:57.625Z,10.87
2023-02-16T01:25:25.972Z,12.97
2023-02-16T01:27:54.399Z,11.17
2023-02-16T01:30:25.162Z,18.23
2023-02-16T01:32:53.868Z,11.70
2023-02-16T01:35:26.018Z,13.40
2023-02-16T01:37:54.080Z,11.20
2023-02-16T01:40:32.138Z,9.70
2023-02-16T01:43:05.405Z,9.00
2023-02-16T01:45:36.766Z,9.70
2023-02-16T01:48:07.113Z,12.97
2023-02-16T01:50:49.279Z,15.60
2023-02-16T01:53:22.552Z,15.33
2023-02-16T01:55:56.554Z,15.80
2023-02-16T01:58:34.900Z,11.80
2023-02-16T02:01:41.149Z,10.90
2023-02-16T02:04:35.568Z,9.43
2023-02-16T02:07:05.299Z,12.77
2023-02-16T02:09:42.160Z,12.93
2023-02-16T02:12:19.807Z,11.50
2023-02-16T02:14:49.241Z,14.20
2023-02-16T02:17:21.490Z,11.00
2023-02-16T02:19:58.279Z,12.37
2023-02-16T02:23:18.484Z,11.77
2023-02-16T02:26:28.600Z,10.93
2023-02-16T02:29:06.894Z,10.93
2023-02-16T02:31:48.452Z,12.17
2023-02-16T02:34:28.630Z,10.73
2023-02-16T02:37:09.192Z,8.90
2023-02-16T02:39:47.634Z,9.57
2023-02-16T02:42:25.101Z,10.33
2023-02-16T02:44:58.719Z,10.83
2023-02-16T02:47:39.280Z,13.50
2023-02-16T02:51:02.957Z,9.13
2023-02-16T02:53:31.746Z,11.27
2023-02-16T02:56:19.442Z,16.93
2023-02-16T02:59:08.723Z,11.23
2023-02-16T03:01:42.385Z,9.67
2023-02-16T03:04:14.876Z,11.40
2023-02-16T03:06:49.055Z,10.40
2023-02-16T03:09:18.210Z,12.07
2023-02-16T03:12:05.467Z,12.80
2023-02-16T03:14:36.275Z,10.73
2023-02-16T03:17:28.346Z,10.50
2023-02-16T03:20:15.260Z,9.00
2023-02-16T03:23:01.696Z,9.73
2023-02-16T03:25:49.698Z,11.03
2023-02-16T03:28:37.663Z,11.83
2023-02-16T03:31:08.075Z,11.70
2023-02-16T03:33:38.086Z,14.13
2023-02-16T03:36:08.338Z,12.73
2023-02-16T03:38:37.858Z,18.20
2023-02-16T03:41:06.372Z,16.10
2023-02-16T03:43:34.612Z,17.90
2023-02-16T03:46:02.941Z,15.53
2023-02-16T03:48:31.057Z,14.93
2023-02-16T03:51:00.596Z,12.27
2023-02-16T03:53:28.911Z,16.67
2023-02-16T03:55:57.032Z,11.97
2023-02-16T03:58:26.105Z,14.07
2023-02-16T04:00:54.750Z,18.33
2023-02-16T04:03:23.001Z,12.23
2023-02-16T04:05:51.199Z,14.23
2023-02-16T04:08:20.655Z,14.43
2023-02-16T04:10:48.782Z,12.50
2023-02-16T04:13:15.851Z,15.43
2023-02-16T04:15:44.154Z,13.07
2023-02-16T04:18:12.348Z,11.47
2023-02-16T04:20:40.533Z,10.43
2023-02-16T04:23:08.779Z,15.60
2023-02-16T04:25:38.265Z,14.87
2023-02-16T04:28:06.342Z,12.30
2023-02-16T04:30:34.806Z,14.53
2023-02-16T04:33:03.310Z,11.80
2023-02-16T04:35:31.389Z,11.97
2023-02-16T04:37:59.657Z,15.30
2023-02-16T04:40:27.823Z,12.80
2023-02-16T04:42:57.448Z,11.17
2023-02-16T04:45:25.562Z,13.90
2023-02-16T04:47:53.767Z,17.23
2023-02-16T04:50:22.007Z,14.90
2023-02-16T04:52:50.106Z,14.97
2023-02-16T04:55:18.424Z,21.43
2023-02-16T04:57:46.713Z,19.13
2023-02-16T05:00:16.849Z,17.67
2023-02-16T05:02:44.948Z,14.10
2023-02-16T05:05:13.148Z,22.27
2023-02-16T05:07:41.267Z,19.03
2023-02-16T05:10:10.207Z,17.30
2023-02-16T05:12:55.780Z,16.30
2023-02-16T05:15:25.840Z,17.10
2023-02-16T05:17:54.004Z,18.40
2023-02-16T05:20:42.909Z,18.40
2023-02-16T05:23:12.336Z,17.23
2023-02-16T05:25:40.600Z,21.57
2023-02-16T05:28:08.721Z,34.10
2023-02-16T05:30:38.306Z,16.50
2023-02-16T05:33:06.414Z,22.57
2023-02-16T05:35:35.738Z,18.60
2023-02-16T05:38:03.851Z,15.90
2023-02-16T05:40:31.920Z,16.90
2023-02-16T05:43:00.063Z,20.80
2023-02-16T05:45:28.450Z,16.10
2023-02-16T05:47:58.046Z,20.23
2023-02-16T05:50:26.151Z,11.97
2023-02-16T05:52:54.282Z,12.97
2023-02-16T05:55:22.499Z,17.60
2023-02-16T05:57:50.719Z,16.80
2023-02-16T06:00:19.199Z,14.03
2023-02-16T06:02:47.324Z,20.80
2023-02-16T06:05:18.126Z,10.77
2023-02-16T06:07:46.853Z,12.97
2023-02-16T06:10:16.400Z,10.80
2023-02-16T06:12:45.002Z,13.43
2023-02-16T06:15:13.374Z,11.20
2023-02-16T06:17:41.497Z,9.40
2023-02-16T06:20:10.576Z,8.13
2023-02-16T06:22:40.564Z,11.10
2023-02-16T06:25:08.956Z,8.73
2023-02-16T06:27:37.044Z,11.00
2023-02-16T06:30:06.407Z,7.27
2023-02-16T06:32:34.590Z,9.70
2023-02-16T06:35:02.698Z,8.43
2023-02-16T06:37:30.854Z,8.80
2023-02-16T06:40:00.328Z,6.90
2023-02-16T06:42:28.378Z,7.97
2023-02-16T06:44:56.462Z,13.80
2023-02-16T06:47:24.603Z,10.77
2023-02-16T06:49:52.706Z,11.17
2023-02-16T06:52:21.061Z,10.30
2023-02-16T06:54:49.178Z,12.20
2023-02-16T06:57:18.771Z,14.60
2023-02-16T06:59:46.846Z,21.00
2023-02-16T07:02:15.039Z,30.77
2023-02-16T07:04:43.110Z,33.33
2023-02-16T07:07:11.236Z,24.90
2023-02-16T07:09:39.362Z,25.87
2023-02-16T07:12:08.454Z,21.63
2023-02-16T07:14:39.865Z,13.63
2023-02-16T07:17:08.766Z,18.17
2023-02-16T07:19:36.928Z,21.67
2023-02-16T07:22:05.545Z,18.37
2023-02-16T07:24:33.648Z,22.30
2023-02-16T07:27:01.740Z,22.53
2023-02-16T07:29:30.099Z,23.53
2023-02-16T07:31:59.857Z,22.07
2023-02-16T07:34:28.137Z,16.73
2023-02-16T07:36:56.259Z,17.50
2023-02-16T07:39:24.542Z,16.10
2023-02-16T07:41:52.726Z,17.37
2023-02-16T07:44:20.885Z,18.00
2023-02-16T07:46:49.153Z,16.60
2023-02-16T07:49:18.635Z,12.43
2023-02-16T07:51:46.750Z,17.97
2023-02-16T07:54:14.962Z,17.50
2023-02-16T07:56:43.125Z,19.60
2023-02-16T07:59:11.186Z,26.43
2023-02-16T08:01:40.162Z,23.53
2023-02-16T08:04:08.332Z,24.87
2023-02-16T08:06:38.236Z,27.27
2023-02-16T08:09:06.628Z,21.53
2023-02-16T08:11:34.758Z,25.27
2023-02-16T08:14:03.009Z,25.10
2023-02-16T08:16:31.415Z,27.80
2023-02-16T08:19:01.215Z,26.40
2023-02-16T08:21:31.366Z,29.80
2023-02-16T08:24:02.560Z,37.10
2023-02-16T08:26:36.872Z,31.40
2023-02-16T08:29:06.119Z,22.93
2023-02-16T08:31:36.765Z,20.00
2023-02-16T08:34:05.906Z,23.90
2023-02-16T08:36:35.625Z,24.47
2023-02-16T08:39:06.885Z,24.23
2023-02-16T08:41:36.909Z,21.20
2023-02-16T08:44:06.003Z,22.57
2023-02-16T08:46:35.627Z,25.53
2023-02-16T08:49:04.162Z,28.70
2023-02-16T08:51:34.662Z,22.90
2023-02-16T08:54:06.023Z,27.87
2023-02-16T08:56:34.527Z,29.50
2023-02-16T08:59:03.371Z,21.53
2023-02-16T09:01:32.463Z,34.33
2023-02-16T09:04:00.619Z,28.63
2023-02-16T09:06:28.957Z,23.93
2023-02-16T09:08:58.317Z,18.40
2023-02-16T09:11:27.842Z,32.93
2023-02-16T09:13:55.902Z,21.50
2023-02-16T09:16:24.941Z,24.93
2023-02-16T09:18:53.554Z,26.50
2023-02-16T09:21:25.636Z,27.90
2023-02-16T09:23:57.743Z,30.60
2023-02-16T09:26:29.370Z,25.40
2023-02-16T09:28:59.088Z,27.93
2023-02-16T09:31:31.330Z,30.07
2023-02-16T09:34:02.858Z,28.17
2023-02-16T09:36:32.009Z,52.20
2023-02-16T09:39:00.063Z,30.80
2023-02-16T09:41:38.149Z,28.00
2023-02-16T09:44:18.920Z,25.57
2023-02-16T09:46:48.247Z,24.07
2023-02-16T09:49:27.689Z,30.30
2023-02-16T09:52:04.029Z,27.03
2023-02-16T09:54:47.034Z,28.27
2023-02-16T09:57:23.874Z,28.50
2023-02-16T10:00:04.512Z,19.70
2023-02-16T10:02:44.074Z,22.13
2023-02-16T10:05:22.365Z,18.20
2023-02-16T10:08:07.779Z,23.90
2023-02-16T10:10:44.759Z,16.27
2023-02-16T10:13:22.605Z,16.70
2023-02-16T10:15:53.987Z,22.17
2023-02-16T10:18:29.435Z,12.53
2023-02-16T10:21:02.044Z,19.97
2023-02-16T10:23:45.166Z,15.63
2023-02-16T10:26:19.621Z,14.83
2023-02-16T10:28:50.958Z,20.03
2023-02-16T10:31:28.187Z,16.33
2023-02-16T10:34:09.597Z,13.13
2023-02-16T10:36:53.314Z,18.57
2023-02-16T10:39:29.135Z,20.60
2023-02-16T10:42:03.682Z,16.20
2023-02-16T10:44:40.261Z,17.10
2023-02-16T10:47:24.237Z,22.63
2023-02-16T10:49:53.149Z,23.97
2023-02-16T10:52:22.185Z,16.20
2023-02-16T10:54:50.990Z,21.40
2023-02-16T10:57:28.015Z,22.50
2023-02-16T11:00:00.298Z,19.70
2023-02-16T11:02:31.206Z,20.77
2023-02-16T11:05:01.857Z,19.17
2023-02-16T11:07:31.797Z,21.40
2023-02-16T11:10:02.186Z,18.57
2023-02-16T11:12:32.667Z,17.40
2023-02-16T11:15:06.346Z,17.57
2023-02-16T11:17:50.312Z,15.30
2023-02-16T11:20:28.746Z,21.43
2023-02-16T11:23:15.023Z,23.53
2023-02-16T11:25:43.204Z,19.30
2023-02-16T11:28:12.439Z,18.30
2023-02-16T11:30:43.497Z,15.83
2023-02-16T11:33:23.571Z,18.60
2023-02-16T11:35:52.228Z,24.50
2023-02-16T11:38:39.037Z,18.60
2023-02-16T11:41:08.207Z,18.40
2023-02-16T11:43:38.758Z,19.57
2023-02-16T11:46:16.765Z,18.97
2023-02-16T11:48:46.273Z,20.83
2023-02-16T11:51:16.371Z,19.93
2023-02-16T11:53:46.117Z,20.47
2023-02-16T11:56:27.458Z,19.13
2023-02-16T11:59:16.980Z,23.87
2023-02-16T12:02:19.781Z,25.83
2023-02-16T12:05:05.219Z,19.53
2023-02-16T12:07:44.670Z,18.93
2023-02-16T12:10:23.771Z,18.97
2023-02-16T12:12:58.907Z,24.20
2023-02-16T12:15:33.005Z,22.23
2023-02-16T12:18:17.906Z,24.73
2023-02-16T12:20:53.235Z,20.90
2023-02-16T12:23:38.290Z,25.63
2023-02-16T12:26:27.773Z,25.23
2023-02-16T12:29:05.340Z,23.43
2023-02-16T12:31:59.026Z,24.93
2023-02-16T12:34:33.795Z,22.97
2023-02-16T12:37:07.116Z,23.07
2023-02-16T12:39:47.747Z,29.07
2023-02-16T12:42:43.630Z,25.50
2023-02-16T12:45:17.681Z,25.07
2023-02-16T12:47:51.302Z,23.73
2023-02-16T12:50:24.129Z,25.70
2023-02-16T12:52:57.025Z,22.50
2023-02-16T12:55:29.451Z,29.33
2023-02-16T12:58:11.551Z,20.50
2023-02-16T13:00:46.127Z,22.30
2023-02-16T13:03:29.154Z,25.30
2023-02-16T13:06:09.368Z,40.67
2023-02-16T13:08:45.016Z,24.30
2023-02-16T13:11:20.336Z,27.27
2023-02-16T13:13:50.892Z,34.60
2023-02-16T13:16:30.631Z,26.50
2023-02-16T13:18:59.398Z,45.37
2023-02-16T13:22:00.596Z,30.07
2023-02-16T13:24:42.736Z,33.00
2023-02-16T13:27:23.782Z,24.17
2023-02-16T13:30:26.095Z,22.90
2023-02-16T13:33:08.240Z,22.13
2023-02-16T13:36:12.052Z,21.73
2023-02-16T13:39:13.558Z,21.50
2023-02-16T13:42:14.230Z,27.37
2023-02-16T13:44:45.804Z,20.97
2023-02-16T13:47:18.051Z,23.00
2023-02-16T13:49:48.322Z,19.17
2023-02-16T13:52:31.681Z,24.13
2023-02-16T13:55:01.496Z,22.33
2023-02-16T13:58:07.118Z,22.20
2023-02-16T14:00:38.285Z,18.73
2023-02-16T14:03:12.845Z,23.20
2023-02-16T14:05:43.017Z,23.37
2023-02-16T14:08:20.741Z,21.23
2023-02-16T14:11:09.700Z,21.83
2023-02-16T14:13:52.394Z,45.90
2023-02-16T14:16:36.354Z,20.30
2023-02-16T14:19:18.196Z,19.83
2023-02-16T14:21:48.105Z,25.20
2023-02-16T14:24:31.153Z,22.40
2023-02-16T14:27:01.159Z,24.13
2023-02-16T14:29:34.037Z,16.80
2023-02-16T14:32:08.017Z,21.13
2023-02-16T14:34:42.622Z,21.23
2023-02-16T14:37:30.305Z,21.70
2023-02-16T14:40:15.455Z,22.20
2023-02-16T14:42:52.771Z,17.80
2023-02-16T14:45:56.143Z,20.90
2023-02-16T14:48:42.150Z,17.93
2023-02-16T14:51:39.015Z,30.60
2023-02-16T14:54:37.443Z,26.23
2023-02-16T14:57:13.546Z,23.73
2023-02-16T14:59:49.814Z,24.63
2023-02-16T15:02:34.076Z,23.23
2023-02-16T15:05:18.862Z,23.20
2023-02-16T15:07:50.551Z,21.90
2023-02-16T15:10:26.890Z,22.53
2023-02-16T15:12:56.271Z,23.23
2023-02-16T15:15:32.698Z,33.33
2023-02-16T15:18:02.390Z,31.03
2023-02-16T15:20:34.461Z,26.30
2023-02-16T15:23:06.261Z,21.30
2023-02-16T15:25:38.542Z,35.17
2023-02-16T15:28:22.739Z,20.37
2023-02-16T15:30:53.867Z,24.47
2023-02-16T15:33:34.376Z,22.10
2023-02-16T15:36:05.930Z,25.07
2023-02-16T15:38:36.516Z,30.07
2023-02-16T15:41:07.678Z,29.53
2023-02-16T15:43:40.027Z,30.07
2023-02-16T15:46:16.020Z,26.67
2023-02-16T15:48:46.067Z,30.03
2023-02-16T15:51:18.673Z,25.07
2023-02-16T15:53:50.436Z,35.50
2023-02-16T15:56:30.670Z,29.63
2023-02-16T15:59:01.708Z,34.33
2023-02-16T16:01:36.696Z,29.13
2023-02-16T16:04:16.963Z,30.03
2023-02-16T16:06:46.831Z,27.43
2023-02-16T16:09:23.999Z,32.60
2023-02-16T16:11:53.162Z,28.50
2023-02-16T16:14:22.797Z,34.27
2023-02-16T16:16:51.589Z,30.93
2023-02-16T16:19:24.752Z,31.80
2023-02-16T16:21:55.679Z,26.30
2023-02-16T16:24:39.065Z,32.30
2023-02-16T16:27:10.110Z,35.23
2023-02-16T16:29:41.321Z,29.73
2023-02-16T16:32:21.387Z,28.07
2023-02-16T16:34:51.148Z,28.17
2023-02-16T16:37:26.528Z,37.60
2023-02-16T16:40:04.303Z,28.97
2023-02-16T16:42:34.057Z,33.67
2023-02-16T16:45:08.435Z,26.87
2023-02-16T16:47:40.271Z,29.80
2023-02-16T16:50:31.796Z,26.30
2023-02-16T16:53:00.015Z,34.80
2023-02-16T16:55:35.571Z,33.47
2023-02-16T16:58:08.069Z,32.97
2023-02-16T17:00:38.866Z,28.10
2023-02-16T17:03:08.698Z,33.60
2023-02-16T17:05:40.066Z,38.77
2023-02-16T17:08:08.814Z,33.40
2023-02-16T17:10:38.722Z,35.60
2023-02-16T17:13:08.075Z,37.00
2023-02-16T17:15:42.669Z,38.53
2023-02-16T17:18:15.503Z,65.80
2023-02-16T17:20:45.639Z,55.80
2023-02-16T17:23:15.304Z,47.27
2023-02-16T17:25:43.568Z,46.43
2023-02-16T17:28:13.734Z,36.40
2023-02-16T17:30:42.939Z,35.83
2023-02-16T17:33:11.920Z,35.17
2023-02-16T17:35:42.494Z,34.77
2023-02-16T17:38:15.094Z,32.87
2023-02-16T17:40:44.557Z,33.57
2023-02-16T17:43:15.098Z,35.47
2023-02-16T17:45:43.920Z,38.07
2023-02-16T17:48:17.395Z,37.60
2023-02-16T17:50:45.626Z,34.27
2023-02-16T17:53:16.945Z,35.77
2023-02-16T17:55:47.873Z,37.27
2023-02-16T17:58:17.431Z,29.80
2023-02-16T18:00:46.660Z,32.57
2023-02-16T18:03:15.248Z,30.77
2023-02-16T18:05:43.561Z,31.50
2023-02-16T18:08:13.269Z,38.50
2023-02-16T18:10:45.780Z,36.17
2023-02-16T18:13:15.066Z,35.57
2023-02-16T18:15:46.269Z,35.23
2023-02-16T18:18:15.924Z,47.40
2023-02-16T18:20:44.217Z,48.57
2023-02-16T18:23:12.350Z,45.83
2023-02-16T18:25:44.175Z,41.60
2023-02-16T18:28:14.844Z,48.70
2023-02-16T18:30:43.311Z,57.80
2023-02-16T18:33:11.473Z,36.27
2023-02-16T18:35:39.762Z,44.43
2023-02-16T18:38:09.133Z,39.23
2023-02-16T18:40:37.259Z,38.60
2023-02-16T18:43:06.737Z,28.03
2023-02-16T18:45:34.858Z,24.20
2023-02-16T18:48:03.231Z,26.93
2023-02-16T18:50:31.481Z,29.77
2023-02-16T18:52:59.672Z,25.20
2023-02-16T18:55:32.915Z,21.83
2023-02-16T18:58:01.420Z,22.20
2023-02-16T19:00:31.149Z,19.70
2023-02-16T19:02:59.381Z,19.03
2023-02-16T19:05:27.627Z,16.80
2023-02-16T19:07:55.768Z,13.87
2023-02-16T19:10:25.185Z,17.10
2023-02-16T19:12:53.469Z,20.20
2023-02-16T19:15:21.952Z,15.57
2023-02-16T19:17:51.474Z,14.27
2023-02-16T19:20:23.146Z,17.50
2023-02-16T19:22:51.504Z,21.70
2023-02-16T19:25:20.334Z,14.50
2023-02-16T19:27:48.600Z,20.13
2023-02-16T19:30:17.102Z,25.00
2023-02-16T19:32:45.494Z,19.50
2023-02-16T19:35:16.108Z,14.57
2023-02-16T19:37:44.183Z,15.83
2023-02-16T19:40:13.782Z,16.63
2023-02-16T19:42:41.916Z,14.17
2023-02-16T19:45:11.403Z,13.50
2023-02-16T19:47:39.581Z,14.33
2023-02-16T19:50:08.576Z,14.97
2023-02-16T19:52:38.288Z,16.80
2023-02-16T19:55:07.112Z,16.47
2023-02-16T19:57:35.255Z,15.40
2023-02-16T20:00:05.215Z,12.40
2023-02-16T20:02:33.361Z,14.37
2023-02-16T20:05:01.613Z,17.07
2023-02-16T20:07:29.730Z,14.07
2023-02-16T20:09:59.353Z,16.97
2023-02-16T20:12:28.815Z,16.13
2023-02-16T20:14:58.308Z,14.40
2023-02-16T20:17:26.473Z,14.97
2023-02-16T20:19:54.810Z,20.60
2023-02-16T20:22:22.966Z,19.37
2023-02-16T20:24:51.068Z,30.00
2023-02-16T20:27:20.594Z,52.93
2023-02-16T20:29:48.738Z,116.20
2023-02-16T20:32:16.992Z,50.53
2023-02-16T20:34:45.165Z,43.60
2023-02-16T20:37:13.334Z,44.13
2023-02-16T20:39:41.561Z,108.43
2023-02-16T20:42:09.748Z,99.47
2023-02-16T20:44:39.337Z,66.70
2023-02-16T20:47:10.210Z,55.40
2023-02-16T20:49:38.445Z,48.77
2023-02-16T20:52:07.000Z,54.80
2023-02-16T20:54:35.075Z,43.73
2023-02-16T20:57:04.685Z,39.77
2023-02-16T20:59:33.080Z,50.20
2023-02-16T21:02:04.810Z,48.47
2023-02-16T21:04:33.086Z,55.70
2023-02-16T21:07:01.293Z,59.67
2023-02-16T21:09:29.409Z,45.30
2023-02-16T21:11:57.494Z,42.27
2023-02-16T21:14:25.556Z,54.87
2023-02-16T21:16:53.649Z,50.87
2023-02-16T21:19:29.319Z,31.13
2023-02-16T21:21:57.429Z,36.83
2023-02-16T21:24:25.676Z,35.20
2023-02-16T21:26:54.052Z,23.40
2023-02-16T21:29:22.141Z,23.33
2023-02-16T21:31:50.432Z,34.17
2023-02-16T21:34:18.791Z,42.00
2023-02-16T21:36:48.282Z,28.50
2023-02-16T21:39:16.471Z,21.10
2023-02-16T21:41:43.877Z,18.53
2023-02-16T21:44:13.296Z,16.63
2023-02-16T21:46:43.426Z,17.70
2023-02-16T21:49:13.305Z,15.33
2023-02-16T21:51:42.918Z,17.70
2023-02-16T21:54:15.261Z,20.93
2023-02-16T21:56:44.408Z,17.33
2023-02-16T21:59:14.843Z,16.97
2023-02-16T22:01:45.520Z,17.07
2023-02-16T22:04:15.748Z,16.40
2023-02-16T22:06:47.327Z,20.40
2023-02-16T22:09:20.290Z,17.33
2023-02-16T22:11:49.527Z,19.20
2023-02-16T22:14:17.932Z,17.43
2023-02-16T22:16:47.774Z,16.03
2023-02-16T22:19:18.388Z,15.60
2023-02-16T22:21:48.563Z,16.70
2023-02-16T22:24:21.527Z,17.40
2023-02-16T22:26:51.329Z,17.10
2023-02-16T22:29:21.971Z,14.60
2023-02-16T22:31:51.058Z,16.50
2023-02-16T22:34:22.597Z,20.13
2023-02-16T22:36:50.963Z,20.97
2023-02-16T22:39:20.967Z,28.07
2023-02-16T22:41:50.448Z,19.60
2023-02-16T22:44:18.755Z,20.73
2023-02-16T22:46:46.947Z,20.60
2023-02-16T22:49:19.108Z,27.90
2023-02-16T22:51:48.405Z,20.50
2023-02-16T22:54:16.539Z,19.70
2023-02-16T22:56:46.037Z,17.83
2023-02-16T22:59:14.265Z,20.40
2023-02-16T23:01:42.771Z,20.10
2023-02-16T23:04:15.262Z,17.83
2023-02-16T23:06:47.588Z,23.20
2023-02-16T23:09:19.006Z,19.53
2023-02-16T23:11:49.229Z,22.50
2023-02-16T23:14:18.275Z,25.13
2023-02-16T23:16:48.262Z,21.87
2023-02-16T23:19:19.030Z,25.80
2023-02-16T23:21:48.012Z,19.50
2023-02-16T23:24:18.747Z,19.80
2023-02-16T23:26:49.150Z,17.90
2023-02-16T23:29:17.288Z,17.17
2023-02-16T23:31:47.635Z,18.57
2023-02-16T23:34:16.766Z,15.90
2023-02-16T23:36:45.543Z,16.40
2023-02-16T23:39:16.774Z,15.73
2023-02-16T23:41:45.489Z,14.37
2023-02-16T23:44:15.667Z,14.87
2023-02-16T23:46:43.783Z,16.47
2023-02-16T23:49:11.866Z,18.80
2023-02-16T23:51:42.351Z,18.60
2023-02-16T23:54:11.605Z,18.90
2023-02-16T23:56:42.013Z,14.67
2023-02-16T23:59:10.207Z,18.90
